Columbia Gorge Regional the Dalles Municipal Airport
KDLS : now visible

Aeroporto :











RITROVATECI SU...

 
LOGIN :

Iscrizione | Disclaimer

   EN    FR    IT 

 









Sommario :    VFR   VFR Marginale   IFR   IFR Intensivo   IFR Molto Intensivo
Visibilità : 
Base nubi : 
>= 8 km
>= 3000ft
5 / 8 km
1000 / 3000 ft
1500m / 5 km
500 / 1000 ft
800 / 1500m
200 / 500 ft
< 800m
< 200 ft
Simboli :   Temporali  Nebbia  Neve Forte  Precipitazioni Forti  Vento > 20 kt






- Altitudine del aeroporto : 247 ft


KDLS - Columbia Gorge Regional the Dalles Municipal

ULTIMO METAR :
  • 250853Z AUTO 36003KT 5SM BR OVC100 04/04 A3003 RMK AO2 SLP172 T00440039 55010

METARs OBSOLETI :
  • 250753Z AUTO 16003KT 6SM BR FEW007 BKN090 OVC120 04/03 A3003 RMK AO2 SLP171 T00440033 401000028
  • 250731Z AUTO 00000KT 5SM BR FEW007 FEW120 04/04 A3005 RMK AO2 T00440039
  • 250653Z AUTO 01005KT 8SM CLR 04/03 A3005 RMK AO2 SLP176 T00390028
  • 250619Z AUTO 17005KT 9SM SCT001 04/03 A3006 RMK AO2 T00390033
  • 250603Z AUTO 20005KT 2 1/2SM BR OVC001 04/03 A3006 RMK AO2 T00390033

TAF KDLS
Valido dal 25 a 07 ore il 26 a 06 ore UTC


250718Z 2507/2606 VRB05KT 6SM BR SCT001 BKN050
FM251000 VRB06KT 3SM -RA BR OVC015
FM251800 30010KT P6SM SCT020 BKN050
TEMPO 2602/2606 5SM -RA BKN020 BKN050



MetMap, La meteo Aeronautica in un colpo d'occhio ! - Copyright ORBIFLY Dicembre 2007 - Disclaimer

ORBIFLY MET'MAP TEAM :

Programmazione e sviluppo : Alexandra Zaïnal
Concezione : Baudouin d'Aumeries
Aiuto per la programmazione : Marc-Olivier Méhu
Supporto tecnico e logistico : Manuel Goepfert
Aiuto per la traduzione : Arnaldo La Scala

Contatto : metmap@orbifly.com




FONTI E CREDITI :

   NOAA       Earth
Advisory